createdAt,value
2022-12-13T00:02:13.189Z,-1.20
2022-12-13T00:06:14.404Z,-1.10
2022-12-13T00:10:15.476Z,-1.00
2022-12-13T00:14:16.569Z,-1.00
2022-12-13T00:18:17.726Z,-1.00
2022-12-13T00:22:18.792Z,-1.00
2022-12-13T00:26:22.869Z,-1.10
2022-12-13T00:30:25.073Z,-1.20
2022-12-13T00:34:26.633Z,-1.40
2022-12-13T00:38:27.699Z,-1.30
2022-12-13T00:42:28.784Z,-1.30
2022-12-13T00:46:30.832Z,-1.50
2022-12-13T00:50:32.962Z,-1.60
2022-12-13T00:54:34.461Z,-1.60
2022-12-13T00:58:35.537Z,-1.60
2022-12-13T01:02:37.003Z,-1.40
2022-12-13T01:06:44.076Z,-1.40
2022-12-13T01:10:46.325Z,-1.40
2022-12-13T01:14:50.688Z,-1.30
2022-12-13T01:18:50.364Z,-1.40
2022-12-13T01:22:51.442Z,-1.50
2022-12-13T01:26:53.407Z,-1.60
2022-12-13T01:30:58.636Z,-1.70
2022-12-13T01:34:59.768Z,-1.80
2022-12-13T01:39:00.834Z,-1.90
2022-12-13T01:43:01.906Z,-1.90
2022-12-13T01:47:05.432Z,-1.90
2022-12-13T01:51:10.006Z,-2.00
2022-12-13T01:55:11.858Z,-1.90
2022-12-13T01:59:15.112Z,-1.80
2022-12-13T02:03:21.777Z,-1.90
2022-12-13T02:07:24.746Z,-1.90
2022-12-13T02:11:27.020Z,-1.90
2022-12-13T02:15:32.033Z,-1.90
2022-12-13T02:19:52.250Z,-2.00
2022-12-13T02:24:15.607Z,-2.00
2022-12-13T02:28:33.043Z,-2.00
2022-12-13T02:32:40.942Z,-2.00
2022-12-13T02:36:58.190Z,-2.10
2022-12-13T02:41:15.425Z,-2.10
2022-12-13T02:45:21.268Z,-2.20
2022-12-13T02:49:24.802Z,-2.20
2022-12-13T02:53:26.641Z,-2.20
2022-12-13T02:57:36.264Z,-2.00
2022-12-13T03:01:50.492Z,-1.90
2022-12-13T03:06:25.708Z,-2.00
2022-12-13T03:10:35.527Z,-2.00
2022-12-13T03:14:40.581Z,-2.20
2022-12-13T03:18:43.433Z,-2.20
2022-12-13T03:22:44.715Z,-2.20
2022-12-13T03:26:47.678Z,-2.10
2022-12-13T03:30:48.869Z,-1.90
2022-12-13T03:35:00.490Z,-2.00
2022-12-13T03:38:54.631Z,-2.10
2022-12-13T03:42:55.800Z,-2.30
2022-12-13T03:47:00.656Z,-2.40
2022-12-13T03:51:03.131Z,-2.30
2022-12-13T03:55:04.508Z,-2.30
2022-12-13T03:59:05.557Z,-2.50
2022-12-13T04:03:06.664Z,-2.60
2022-12-13T04:07:22.378Z,-2.40
2022-12-13T04:11:29.140Z,-2.40
2022-12-13T04:15:31.009Z,-2.30
2022-12-13T04:19:32.065Z,-2.40
2022-12-13T04:23:33.145Z,-2.50
2022-12-13T04:27:34.203Z,-2.40
2022-12-13T04:31:35.281Z,-2.50
2022-12-13T04:35:36.467Z,-2.50
2022-12-13T04:39:37.524Z,-2.40
2022-12-13T04:43:38.714Z,-2.40
2022-12-13T04:47:39.866Z,-2.30
2022-12-13T04:51:42.834Z,-2.30
2022-12-13T04:55:45.790Z,-2.50
2022-12-13T04:59:46.881Z,-2.50
2022-12-13T05:03:48.063Z,-2.60
2022-12-13T05:07:49.305Z,-2.70
2022-12-13T05:11:50.432Z,-2.80
2022-12-13T05:15:58.324Z,-2.70
2022-12-13T05:19:59.521Z,-2.60
2022-12-13T05:24:02.704Z,-2.60
2022-12-13T05:28:27.204Z,-2.60
2022-12-13T05:32:07.859Z,-2.40
2022-12-13T05:36:09.335Z,-2.50
2022-12-13T05:40:10.769Z,-2.60
2022-12-13T05:44:12.829Z,-2.50
2022-12-13T05:48:13.937Z,-2.60
2022-12-13T05:52:18.290Z,-2.60
2022-12-13T05:56:22.437Z,-2.60
2022-12-13T06:00:30.246Z,-2.70
2022-12-13T06:04:25.729Z,-2.60
2022-12-13T06:08:26.935Z,-2.60
2022-12-13T06:12:31.870Z,-2.60
2022-12-13T06:16:31.106Z,-2.60
2022-12-13T06:20:32.273Z,-2.90
2022-12-13T06:24:33.446Z,-2.80
2022-12-13T06:28:35.013Z,-2.80
2022-12-13T06:32:39.953Z,-2.70
2022-12-13T06:36:39.036Z,-2.80
2022-12-13T06:40:40.116Z,-2.80
2022-12-13T06:44:41.505Z,-2.80
2022-12-13T06:48:42.882Z,-2.80
2022-12-13T06:52:46.454Z,-3.00
2022-12-13T06:56:47.538Z,-2.90
2022-12-13T07:00:49.537Z,-2.90
2022-12-13T07:04:50.779Z,-2.90
2022-12-13T07:08:55.255Z,-2.90
2022-12-13T07:12:56.364Z,-2.90
2022-12-13T07:17:03.407Z,-3.00
2022-12-13T07:21:07.650Z,-3.00
2022-12-13T07:25:27.471Z,-3.00
2022-12-13T07:29:11.941Z,-3.00
2022-12-13T07:33:13.298Z,-3.00
2022-12-13T07:37:29.292Z,-3.10
2022-12-13T07:41:23.210Z,-3.20
2022-12-13T07:45:23.258Z,-3.10
2022-12-13T07:49:24.440Z,-3.00
2022-12-13T07:53:26.102Z,-3.00
2022-12-13T07:57:27.666Z,-3.00
2022-12-13T08:01:33.277Z,-3.00
2022-12-13T08:05:38.153Z,-2.80
2022-12-13T08:09:39.862Z,-3.00
2022-12-13T08:13:41.211Z,-3.00
2022-12-13T08:17:42.773Z,-2.90
2022-12-13T08:22:01.978Z,-2.80
2022-12-13T08:25:52.123Z,-2.70
2022-12-13T08:29:53.295Z,-2.90
2022-12-13T08:33:54.405Z,-2.60
2022-12-13T08:37:56.063Z,-2.60
2022-12-13T08:41:59.887Z,-2.60
2022-12-13T08:46:07.268Z,-2.60
2022-12-13T08:50:15.588Z,-2.30
2022-12-13T08:54:31.106Z,-2.10
2022-12-13T08:58:20.356Z,-1.80
2022-12-13T09:02:26.879Z,-1.60
2022-12-13T09:06:42.547Z,-1.40
2022-12-13T09:10:49.179Z,-1.20
2022-12-13T09:15:04.670Z,-1.20
2022-12-13T09:19:25.150Z,-0.70
2022-12-13T09:23:36.995Z,-0.50
2022-12-13T09:27:39.597Z,0.00
2022-12-13T09:31:51.113Z,0.30
2022-12-13T09:35:57.363Z,0.20
2022-12-13T09:40:16.427Z,0.60
2022-12-13T09:44:07.711Z,1.00
2022-12-13T09:48:14.879Z,1.40
2022-12-13T09:52:21.624Z,1.60
2022-12-13T09:56:27.876Z,1.80
2022-12-13T10:00:33.342Z,1.90
2022-12-13T10:04:35.149Z,2.00
2022-12-13T10:08:42.256Z,2.10
2022-12-13T10:12:48.417Z,1.90
2022-12-13T10:16:54.479Z,2.00
2022-12-13T10:20:58.553Z,1.80
2022-12-13T10:25:05.864Z,2.00
2022-12-13T10:29:07.958Z,2.00
2022-12-13T10:33:19.182Z,1.90
2022-12-13T10:37:33.880Z,2.10
2022-12-13T10:41:40.740Z,1.80
2022-12-13T10:45:44.813Z,1.80
2022-12-13T10:49:59.348Z,2.20
2022-12-13T10:54:00.138Z,2.10
2022-12-13T10:58:11.878Z,1.50
2022-12-13T11:02:40.540Z,1.30
2022-12-13T11:06:52.533Z,0.90
2022-12-13T11:11:05.721Z,1.40
2022-12-13T11:15:19.283Z,1.40
2022-12-13T11:19:52.771Z,1.60
2022-12-13T11:24:01.547Z,1.80
2022-12-13T11:28:27.220Z,1.70
2022-12-13T11:32:48.392Z,1.60
2022-12-13T11:37:02.929Z,1.70
2022-12-13T11:41:32.587Z,1.50
2022-12-13T11:45:34.587Z,1.50
2022-12-13T11:49:54.814Z,1.40
2022-12-13T11:54:24.061Z,1.50
2022-12-13T11:59:05.881Z,1.60
2022-12-13T12:03:03.452Z,1.50
2022-12-13T12:07:31.895Z,1.70
2022-12-13T12:11:47.810Z,1.90
2022-12-13T12:15:59.222Z,2.00
2022-12-13T12:20:05.860Z,2.00
2022-12-13T12:24:20.765Z,1.80
2022-12-13T12:28:44.817Z,1.70
2022-12-13T12:32:58.663Z,1.60
2022-12-13T12:37:40.416Z,1.10
2022-12-13T12:42:26.104Z,1.50
2022-12-13T12:47:08.529Z,1.20
2022-12-13T12:51:02.677Z,1.20
2022-12-13T12:55:45.081Z,1.00
2022-12-13T13:00:01.663Z,1.20
2022-12-13T13:04:08.597Z,1.40
2022-12-13T13:08:41.086Z,1.30
2022-12-13T13:17:34.926Z,1.40
2022-12-13T13:22:02.022Z,1.20
2022-12-13T13:26:27.063Z,1.20
2022-12-13T13:30:26.392Z,1.20
2022-12-13T13:34:32.512Z,1.10
2022-12-13T13:38:54.752Z,1.20
2022-12-13T13:43:12.470Z,1.20
2022-12-13T13:47:24.826Z,1.30
2022-12-13T13:51:41.436Z,1.60
2022-12-13T13:56:01.657Z,1.40
2022-12-13T14:00:12.201Z,1.40
2022-12-13T14:04:55.053Z,1.40
2022-12-13T14:09:30.911Z,1.30
2022-12-13T14:13:45.036Z,1.50
2022-12-13T14:17:57.875Z,1.70
2022-12-13T14:22:31.151Z,1.70
2022-12-13T14:26:55.975Z,1.40
2022-12-13T14:30:57.988Z,1.20
2022-12-13T14:35:24.681Z,1.30
2022-12-13T14:39:25.261Z,1.30
2022-12-13T14:43:31.404Z,1.40
2022-12-13T14:47:42.956Z,1.60
2022-12-13T14:51:47.682Z,1.70
2022-12-13T14:56:27.440Z,1.70
2022-12-13T15:00:23.488Z,1.80
2022-12-13T15:04:32.974Z,1.80
2022-12-13T15:08:37.167Z,1.80
2022-12-13T15:12:44.118Z,1.70
2022-12-13T15:16:50.970Z,1.70
2022-12-13T15:20:54.254Z,1.70
2022-12-13T15:24:57.635Z,1.50
2022-12-13T15:29:09.957Z,1.60
2022-12-13T15:33:30.455Z,1.50
2022-12-13T15:37:32.310Z,1.40
2022-12-13T15:41:36.737Z,1.30
2022-12-13T15:45:38.248Z,1.30
2022-12-13T15:49:51.946Z,1.40
2022-12-13T15:54:12.395Z,1.40
2022-12-13T15:58:25.986Z,1.30
2022-12-13T16:02:29.469Z,1.20
2022-12-13T16:06:32.769Z,1.20
2022-12-13T16:10:34.727Z,1.10
2022-12-13T16:14:40.238Z,1.20
2022-12-13T16:18:46.506Z,1.00
2022-12-13T16:22:48.047Z,0.90
2022-12-13T16:26:51.612Z,0.90
2022-12-13T16:31:02.456Z,0.70
2022-12-13T16:35:04.011Z,0.60
2022-12-13T16:39:07.120Z,0.50
2022-12-13T16:43:14.743Z,0.20
2022-12-13T16:47:27.010Z,0.20
2022-12-13T16:51:25.821Z,0.10
2022-12-13T16:55:27.051Z,0.00
2022-12-13T16:59:28.297Z,-0.20
2022-12-13T17:03:29.617Z,-0.20
2022-12-13T17:07:30.921Z,-0.30
2022-12-13T17:11:32.863Z,-0.30
2022-12-13T17:15:34.131Z,-0.30
2022-12-13T17:19:35.379Z,-0.30
2022-12-13T17:23:37.044Z,-0.40
2022-12-13T17:27:38.791Z,-0.20
2022-12-13T17:31:39.984Z,-0.20
2022-12-13T17:35:41.294Z,-0.40
2022-12-13T17:39:48.611Z,-0.40
2022-12-13T17:43:49.887Z,-0.10
2022-12-13T17:47:51.934Z,-0.10
2022-12-13T17:51:54.215Z,-0.20
2022-12-13T17:56:01.781Z,-0.40
2022-12-13T18:00:04.495Z,-0.40
2022-12-13T18:04:05.804Z,-0.20
2022-12-13T18:08:07.600Z,-0.10
2022-12-13T18:12:08.956Z,-0.10
2022-12-13T18:16:14.446Z,-0.20
2022-12-13T18:20:15.654Z,-0.30
2022-12-13T18:24:16.909Z,-0.50
2022-12-13T18:28:18.129Z,-0.50
2022-12-13T18:32:19.328Z,-0.60
2022-12-13T18:36:23.551Z,-0.70
2022-12-13T18:40:25.068Z,-1.00
2022-12-13T18:44:26.518Z,-1.10
2022-12-13T18:48:28.562Z,-1.10
2022-12-13T18:52:30.225Z,-1.10
2022-12-13T18:56:31.692Z,-1.00
2022-12-13T19:00:33.068Z,-0.80
2022-12-13T19:04:35.258Z,-0.80
2022-12-13T19:08:36.898Z,-0.70
2022-12-13T19:12:38.241Z,-0.80
2022-12-13T19:16:40.362Z,-0.70
2022-12-13T19:20:50.108Z,-0.70
2022-12-13T19:24:52.211Z,-0.50
2022-12-13T19:28:56.341Z,-0.40
2022-12-13T19:32:57.843Z,-0.20
2022-12-13T19:37:03.048Z,-0.20
2022-12-13T19:41:10.557Z,-0.20
2022-12-13T19:45:11.883Z,-0.20
2022-12-13T19:49:13.334Z,-0.10
2022-12-13T19:53:14.598Z,-0.10
2022-12-13T19:57:16.084Z,-0.10
2022-12-13T20:01:18.569Z,-0.10
2022-12-13T20:05:20.007Z,0.00
2022-12-13T20:09:21.372Z,0.00
2022-12-13T20:13:22.578Z,-0.20
2022-12-13T20:17:23.829Z,-0.20
2022-12-13T20:21:27.557Z,-0.10
2022-12-13T20:25:28.923Z,0.00
2022-12-13T20:29:30.215Z,0.00
2022-12-13T20:33:32.071Z,0.10
2022-12-13T20:37:34.409Z,0.10
2022-12-13T20:41:36.539Z,0.20
2022-12-13T20:45:37.872Z,0.20
2022-12-13T20:49:39.525Z,0.30
2022-12-13T20:53:43.203Z,0.10
2022-12-13T20:57:44.475Z,0.10
2022-12-13T21:01:48.863Z,0.10
2022-12-13T21:05:49.358Z,0.00
2022-12-13T21:09:50.695Z,0.00
2022-12-13T21:14:21.977Z,0.20
2022-12-13T21:18:21.008Z,0.10
2022-12-13T21:22:22.250Z,0.10
2022-12-13T21:26:27.604Z,-0.10
2022-12-13T21:30:27.964Z,-0.10
2022-12-13T21:34:29.567Z,-0.20
2022-12-13T21:38:30.886Z,-0.20
2022-12-13T21:42:32.094Z,-0.30
2022-12-13T21:47:10.112Z,-0.30
2022-12-13T21:50:36.624Z,-0.40
2022-12-13T21:54:37.822Z,-0.50
2022-12-13T21:58:59.958Z,-0.50
2022-12-13T22:03:05.322Z,-0.40
2022-12-13T22:07:08.230Z,-0.60
2022-12-13T22:11:21.052Z,-0.60
2022-12-13T22:15:19.201Z,-0.70
2022-12-13T22:19:21.165Z,-0.80
2022-12-13T22:23:22.525Z,-0.90
2022-12-13T22:27:24.671Z,-0.80
2022-12-13T22:31:29.712Z,-0.70
2022-12-13T22:35:28.859Z,-0.70
2022-12-13T22:39:30.011Z,-0.70
2022-12-13T22:43:35.431Z,-0.60
2022-12-13T22:47:36.632Z,-0.60
2022-12-13T22:51:38.937Z,-0.50
2022-12-13T22:55:40.196Z,-0.50
2022-12-13T22:59:41.517Z,-0.40
2022-12-13T23:03:43.767Z,-0.40
2022-12-13T23:07:48.563Z,-0.40
2022-12-13T23:12:06.746Z,-0.40
2022-12-13T23:16:08.273Z,-0.40
2022-12-13T23:20:10.231Z,-0.30
2022-12-13T23:24:13.029Z,-0.40
2022-12-13T23:28:14.279Z,-0.50
2022-12-13T23:32:16.029Z,-0.30
2022-12-13T23:36:23.182Z,-0.40
2022-12-13T23:40:24.550Z,-0.50
2022-12-13T23:44:26.528Z,-0.50
2022-12-13T23:48:28.597Z,-0.50
2022-12-13T23:52:30.564Z,-0.50
2022-12-13T23:56:33.375Z,-0.50
